Time;durP1;ratioP1;P1;durP2;ratioP2;P2;SDS_P1;SDS_P2;PMS_P1;PMS_P2;Temp;Humidity;BMP_temperature;BMP_pressure;BME280_temperature;BME280_humidity;BME280_pressure;Samples;Min_cycle;Max_cycle;Signal;HPM_P1;HPM_P2
2021/04/19 00:01:12;;;;;;;25.17;17.30;;;;;;;3.75;75.89;95933.13;4991606;28;20100;-48
2021/04/19 00:03:39;;;;;;;27.48;18.95;;;;;;;3.56;76.56;95934.97;4990880;28;20112;-48
2021/04/19 00:06:06;;;;;;;26.20;18.48;;;;;;;3.54;76.89;95939.00;4991578;28;20350;-46
2021/04/19 00:08:33;;;;;;;28.63;18.38;;;;;;;3.54;76.84;95939.00;4992084;28;20525;-48
2021/04/19 00:11:01;;;;;;;26.73;17.92;;;;;;;3.75;75.97;95935.00;4991787;28;20062;-47
2021/04/19 00:13:27;;;;;;;25.38;18.02;;;;;;;3.56;76.42;95928.84;4990588;28;20522;-50
2021/04/19 00:15:54;;;;;;;27.60;18.10;;;;;;;3.39;77.38;95930.09;4991608;28;20058;-46
2021/04/19 00:18:20;;;;;;;25.27;18.15;;;;;;;3.54;76.91;95920.28;4991526;28;20459;-48
2021/04/19 00:20:47;;;;;;;25.63;17.25;;;;;;;3.50;76.91;95928.88;4991134;28;20073;-50
2021/04/19 00:23:14;;;;;;;30.52;18.40;;;;;;;3.60;76.22;95919.16;4990437;28;20108;-49
2021/04/19 00:25:40;;;;;;;28.38;19.58;;;;;;;3.39;77.48;95922.09;4991398;28;20427;-47
2021/04/19 00:28:07;;;;;;;27.85;18.58;;;;;;;3.53;77.04;95926.72;4991313;28;20081;-48
2021/04/19 00:30:33;;;;;;;24.15;17.48;;;;;;;3.53;76.91;95922.16;4990868;28;20109;-49
2021/04/19 00:33:00;;;;;;;25.10;17.90;;;;;;;3.51;76.87;95922.47;4990482;28;20089;-49
2021/04/19 00:35:27;;;;;;;27.25;18.45;;;;;;;3.73;76.25;95910.41;4989859;28;20050;-48
2021/04/19 00:37:53;;;;;;;29.25;18.98;;;;;;;3.67;76.55;95922.25;4991349;28;20054;-47
2021/04/19 00:40:21;;;;;;;27.50;19.13;;;;;;;3.50;77.08;95918.19;4991131;28;20042;-48
2021/04/19 00:42:50;;;;;;;28.77;19.55;;;;;;;3.58;76.86;95914.09;4990446;28;20050;-48
2021/04/19 00:45:17;;;;;;;25.80;17.95;;;;;;;3.62;76.88;95907.06;4990924;28;20055;-48
2021/04/19 00:47:47;;;;;;;28.20;18.73;;;;;;;3.55;76.89;95911.19;4989682;28;20108;-47
2021/04/19 00:50:19;;;;;;;25.67;17.75;;;;;;;3.58;77.79;95913.31;5001452;28;20485;-49
2021/04/19 00:52:47;;;;;;;26.30;18.23;;;;;;;3.74;76.64;95903.97;5006671;28;20042;-47
2021/04/19 00:55:15;;;;;;;26.77;18.38;;;;;;;3.74;76.64;95907.44;4994768;28;20050;-47
2021/04/19 00:57:43;;;;;;;27.70;18.88;;;;;;;3.73;76.49;95900.50;4994994;28;20050;-48
2021/04/19 01:00:26;;;;;;;26.80;18.30;;;;;;;3.79;76.33;95908.47;4994848;28;20133;-45
2021/04/19 01:02:53;;;;;;;27.17;18.92;;;;;;;3.81;76.07;95906.31;4994040;28;20100;-45
2021/04/19 01:05:26;;;;;;;30.80;18.05;;;;;;;3.70;76.43;95903.75;4993148;28;20082;-49
2021/04/19 01:07:53;;;;;;;;;;;;;;;3.59;77.07;95898.84;4995176;28;20487;-46
2021/04/19 01:10:20;;;;;;;24.65;16.83;;;;;;;3.70;77.36;95902.94;4994212;28;20007;-46
2021/04/19 01:12:46;;;;;;;24.80;17.60;;;;;;;3.59;77.20;95901.50;4993577;28;20046;-49
2021/04/19 01:15:14;;;;;;;24.80;17.75;;;;;;;3.81;76.66;95903.63;4994773;28;20503;-48
2021/04/19 01:17:44;;;;;;;25.88;18.20;;;;;;;3.86;76.26;95904.31;4994716;28;20676;-46
2021/04/19 01:20:14;;;;;;;26.92;18.25;;;;;;;3.82;76.63;95903.31;4994314;28;20054;-48
2021/04/19 01:22:42;;;;;;;25.98;16.38;;;;;;;3.84;76.51;95898.47;4993751;28;20109;-45
2021/04/19 01:25:14;;;;;;;27.05;19.17;;;;;;;3.89;76.37;95894.94;4997865;28;20100;-47
2021/04/19 01:27:41;;;;;;;26.45;18.70;;;;;;;3.83;76.53;95893.41;5014176;28;20054;-47
2021/04/19 01:30:11;;;;;;;29.25;18.60;;;;;;;3.97;76.31;95892.41;5002893;28;20412;-45
2021/04/19 01:32:38;;;;;;;27.65;17.50;;;;;;;3.72;76.51;95900.78;4992676;28;20137;-45
2021/04/19 01:35:06;;;;;;;25.25;18.00;;;;;;;3.83;76.44;95899.56;5009619;28;20104;-49
2021/04/19 01:37:32;;;;;;;25.17;17.48;;;;;;;3.84;76.15;95893.13;4994122;28;20512;-47
2021/04/19 01:40:00;;;;;;;26.38;17.52;;;;;;;3.80;75.93;95891.31;4994004;28;20415;-47
2021/04/19 01:42:27;;;;;;;27.23;18.00;;;;;;;3.82;75.73;95900.66;4992103;28;20062;-45
2021/04/19 01:44:54;;;;;;;27.08;18.85;;;;;;;3.62;76.78;95895.59;4994263;28;20050;-46
2021/04/19 01:47:21;;;;;;;24.52;16.90;;;;;;;3.48;77.13;95896.28;4992959;28;20051;-46
2021/04/19 01:49:48;;;;;;;25.67;17.27;;;;;;;3.42;77.57;95897.44;4996657;28;20073;-46
2021/04/19 01:52:15;;;;;;;24.88;17.55;;;;;;;3.45;77.81;95904.09;5001555;28;20050;-46
2021/04/19 01:54:42;;;;;;;26.33;17.90;;;;;;;3.23;78.40;95904.63;4993907;28;20051;-48
2021/04/19 01:57:09;;;;;;;26.98;18.52;;;;;;;3.44;77.89;95897.94;4993858;28;20066;-46
2021/04/19 01:59:38;;;;;;;25.35;17.45;;;;;;;3.62;77.13;95898.25;4991628;28;20080;-48
2021/04/19 02:02:36;;;;;;;27.10;18.55;;;;;;;3.68;76.55;95897.09;5008219;28;20196;-45
2021/04/19 02:05:20;;;;;;;27.55;17.27;;;;;;;3.74;76.77;95893.28;4993734;28;20117;-46
2021/04/19 02:08:06;;;;;;;26.98;18.42;;;;;;;3.77;76.44;95897.22;4993768;28;20076;-47
2021/04/19 02:10:47;;;;;;;25.08;17.23;;;;;;;3.47;77.33;95900.03;4993512;28;20049;-45
2021/04/19 02:13:28;;;;;;;27.13;17.92;;;;;;;3.54;77.69;95905.03;4992651;28;20100;-45
2021/04/19 02:16:06;;;;;;;28.00;18.58;;;;;;;3.60;77.22;95903.09;4993644;28;20078;-46
2021/04/19 02:18:57;;;;;;;24.45;17.52;;;;;;;3.69;76.83;95902.16;4993472;28;20405;-47
2021/04/19 02:21:54;;;;;;;26.10;18.30;;;;;;;3.56;77.36;95897.53;4992348;28;20046;-48
2021/04/19 02:24:29;;;;;;;27.38;18.10;;;;;;;3.71;76.76;95901.88;4992965;28;20058;-48
2021/04/19 02:27:03;;;;;;;26.15;18.17;;;;;;;3.80;76.97;95897.44;4992477;28;20058;-46
2021/04/19 02:29:34;;;;;;;24.52;17.05;;;;;;;3.81;76.04;95891.03;4993302;28;20043;-47
2021/04/19 02:32:12;;;;;;;25.15;17.55;;;;;;;3.81;76.10;95893.72;4991092;28;20799;-47
2021/04/19 02:34:44;;;;;;;25.58;17.70;;;;;;;3.81;76.26;95895.59;5001595;28;20049;-50
2021/04/19 02:37:13;;;;;;;25.80;18.15;;;;;;;3.80;76.14;95893.97;5010273;28;20137;-46
2021/04/19 02:39:42;;;;;;;25.92;17.13;;;;;;;3.86;76.13;95892.81;5008939;28;20042;-46
2021/04/19 02:42:10;;;;;;;27.30;18.95;;;;;;;3.96;75.72;95888.13;4992408;28;20086;-46
2021/04/19 02:44:38;;;;;;;27.50;19.48;;;;;;;3.90;76.04;95886.63;4991797;28;20077;-46
2021/04/19 02:47:21;;;;;;;27.48;18.92;;;;;;;3.85;76.47;95889.34;4991850;28;20093;-45
2021/04/19 02:50:10;;;;;;;25.17;17.35;;;;;;;3.56;77.27;95886.81;4998167;28;20050;-47
2021/04/19 02:52:37;;;;;;;25.35;17.20;;;;;;;3.69;76.58;95885.31;4997315;28;20050;-46
2021/04/19 02:55:07;;;;;;;27.23;18.50;;;;;;;3.60;77.00;95882.47;4992853;28;20066;-45
2021/04/19 02:57:50;;;;;;;28.50;18.90;;;;;;;3.63;77.08;95883.78;4991876;28;20054;-46
2021/04/19 03:00:21;;;;;;;28.73;18.45;;;;;;;3.77;76.47;95876.66;4993134;28;20046;-48
2021/04/19 03:02:51;;;;;;;27.77;18.17;;;;;;;3.75;76.36;95876.13;4990789;28;20154;-46
2021/04/19 03:05:19;;;;;;;25.13;18.27;;;;;;;3.70;76.76;95878.88;4992496;28;20047;-45
2021/04/19 03:07:57;;;;;;;27.50;19.27;;;;;;;3.71;76.80;95873.25;4991357;28;20046;-48
2021/04/19 03:10:32;;;;;;;25.88;18.13;;;;;;;3.68;76.68;95873.03;4992354;28;20039;-47
2021/04/19 03:13:00;;;;;;;26.23;18.35;;;;;;;3.77;76.19;95873.97;5006380;28;20042;-46
2021/04/19 03:15:35;;;;;;;28.42;17.92;;;;;;;3.63;76.84;95871.19;4991339;28;20486;-48
2021/04/19 03:18:16;;;;;;;26.20;18.55;;;;;;;3.73;76.72;95878.28;4992453;28;20087;-46
2021/04/19 03:21:23;;;;;;;26.27;18.45;;;;;;;3.74;76.69;95866.53;4991371;28;20519;-45
2021/04/19 03:24:05;;;;;;;26.73;17.98;;;;;;;3.85;75.99;95864.47;4990884;28;20061;-47
2021/04/19 03:26:45;;;;;;;27.80;18.45;;;;;;;3.89;75.85;95868.16;5002274;28;20129;-45
2021/04/19 03:29:13;;;;;;;27.55;19.15;;;;;;;3.72;76.63;95869.47;5010690;28;20046;-48
2021/04/19 03:32:01;;;;;;;26.20;17.73;;;;;;;3.71;76.89;95872.44;4994551;28;20054;-46
2021/04/19 03:34:31;;;;;;;27.13;19.25;;;;;;;3.66;76.76;95880.53;5007222;28;20082;-48
2021/04/19 03:37:05;;;;;;;26.00;18.80;;;;;;;3.50;77.75;95869.25;4990984;28;20050;-47
2021/04/19 03:39:36;;;;;;;28.08;19.52;;;;;;;3.69;77.36;95874.59;5006795;28;20047;-47
2021/04/19 03:42:04;;;;;;;28.27;19.75;;;;;;;3.78;76.74;95867.53;4991353;28;20062;-45
2021/04/19 03:44:37;;;;;;;27.95;18.45;;;;;;;3.85;76.43;95867.16;5006061;28;20116;-49
2021/04/19 03:47:05;;;;;;;27.60;19.38;;;;;;;3.86;76.25;95868.75;4990684;28;20579;-46
2021/04/19 03:50:01;;;;;;;27.77;19.13;;;;;;;3.80;76.07;95876.03;4996631;28;20427;-45
2021/04/19 03:52:36;;;;;;;27.23;18.75;;;;;;;3.88;76.07;95877.28;5009373;28;20495;-50
2021/04/19 03:55:05;;;;;;;;;;;;;;;3.70;76.80;95884.22;5012099;28;20066;-47
2021/04/19 03:57:34;;;;;;;36.25;19.55;;;;;;;3.53;77.35;95886.59;5026542;28;20310;-50
2021/04/19 04:00:06;;;;;;;27.50;18.67;;;;;;;3.47;77.59;95883.97;4991462;28;20054;-48
2021/04/19 04:02:50;;;;;;;30.50;18.77;;;;;;;3.68;77.03;95895.22;4991738;28;20590;-47
2021/04/19 04:05:29;;;;;;;33.90;19.05;;;;;;;3.38;78.02;95891.09;4990693;28;20054;-47
2021/04/19 04:08:17;;;;;;;33.58;19.10;;;;;;;3.41;78.03;95895.84;5007357;28;20054;-46
2021/04/19 04:10:46;;;;;;;28.02;18.88;;;;;;;3.66;77.06;95892.03;4990692;28;20054;-50
2021/04/19 04:13:13;;;;;;;28.52;19.63;;;;;;;3.69;76.88;95890.66;5005590;28;20105;-46
2021/04/19 04:15:52;;;;;;;30.70;19.63;;;;;;;3.67;77.50;95892.81;4990579;28;20050;-46
2021/04/19 04:18:20;;;;;;;30.60;20.27;;;;;;;3.62;77.37;95901.72;4990965;28;20042;-46
2021/04/19 04:20:50;;;;;;;33.75;19.55;;;;;;;3.61;77.68;95896.69;4990193;28;20046;-48
2021/04/19 04:23:23;;;;;;;29.50;19.00;;;;;;;3.81;76.59;95909.75;4989832;28;20129;-50
2021/04/19 04:25:51;;;;;;;28.67;19.42;;;;;;;3.87;76.33;95902.47;4991765;28;20093;-49
2021/04/19 04:28:23;;;;;;;25.33;18.13;;;;;;;3.89;76.44;95901.06;5006815;28;20050;-47
2021/04/19 04:30:59;;;;;;;26.42;18.70;;;;;;;3.86;76.21;95901.66;5006371;28;20050;-47
2021/04/19 04:33:31;;;;;;;28.63;19.17;;;;;;;4.04;75.39;95907.31;4989934;28;20046;-50
2021/04/19 04:36:05;;;;;;;27.42;18.30;;;;;;;3.91;76.16;95898.91;5006620;28;20133;-48
2021/04/19 04:38:34;;;;;;;27.60;19.08;;;;;;;3.99;75.94;95894.78;4990328;28;20058;-48
2021/04/19 04:41:05;;;;;;;30.15;19.95;;;;;;;4.07;75.39;95896.81;5006475;28;20064;-47
2021/04/19 04:43:37;;;;;;;27.95;19.00;;;;;;;3.97;76.38;95897.75;4991954;28;20054;-47
2021/04/19 04:46:19;;;;;;;28.90;19.40;;;;;;;3.76;76.55;95896.44;4994985;28;20046;-47
2021/04/19 04:49:00;;;;;;;27.85;19.77;;;;;;;3.97;75.99;95905.78;5001299;28;20439;-50
2021/04/19 04:51:30;;;;;;;27.38;19.13;;;;;;;3.88;76.39;95898.69;4995884;28;20077;-47
2021/04/19 04:54:02;;;;;;;30.02;20.38;;;;;;;4.03;75.87;95898.47;5005848;28;20125;-48
2021/04/19 04:56:34;;;;;;;29.38;19.17;;;;;;;3.99;75.99;95906.28;4999955;28;20057;-46
2021/04/19 04:59:03;;;;;;;29.08;19.17;;;;;;;4.05;75.74;95898.97;5009819;28;20058;-47
2021/04/19 05:01:32;;;;;;;31.08;20.40;;;;;;;4.09;75.51;95899.97;5009601;28;20042;-47
2021/04/19 05:04:00;;;;;;;28.30;19.45;;;;;;;4.06;75.38;95899.75;5010790;28;20057;-49
2021/04/19 05:06:28;;;;;;;30.23;19.98;;;;;;;4.05;75.56;95900.84;5011368;28;20065;-47
2021/04/19 05:08:55;;;;;;;29.85;20.13;;;;;;;4.05;75.59;95903.53;5011071;28;20060;-47
2021/04/19 05:11:22;;;;;;;29.30;21.00;;;;;;;4.08;76.03;95900.28;4991633;28;20412;-47
2021/04/19 05:13:49;;;;;;;28.15;18.98;;;;;;;3.98;76.15;95899.34;4995026;28;20042;-49
2021/04/19 05:16:28;;;;;;;31.98;20.42;;;;;;;3.90;76.64;95897.31;4994847;28;20423;-48
2021/04/19 05:18:57;;;;;;;30.15;20.33;;;;;;;4.09;75.79;95905.31;4997446;28;20046;-49
2021/04/19 05:21:24;;;;;;;26.73;19.58;;;;;;;4.20;75.48;95903.31;5008165;28;20050;-50
2021/04/19 05:23:51;;;;;;;27.92;19.33;;;;;;;4.34;74.87;95906.81;5006551;28;20069;-47
2021/04/19 05:26:19;;;;;;;27.75;19.15;;;;;;;4.41;74.40;95896.50;4998604;28;20473;-49
2021/04/19 05:28:47;;;;;;;29.30;19.10;;;;;;;4.38;74.70;95896.31;5004283;28;20558;-47
2021/04/19 05:31:18;;;;;;;30.88;21.40;;;;;;;4.63;74.17;95903.13;5010754;28;20057;-46
2021/04/19 05:33:45;;;;;;;32.78;20.55;;;;;;;4.80;73.12;95892.63;5010660;28;20127;-46
2021/04/19 05:36:13;;;;;;;29.67;20.58;;;;;;;4.75;73.29;95897.31;5014330;28;20050;-49
2021/04/19 05:38:44;;;;;;;30.40;19.33;;;;;;;4.68;73.36;95901.16;5003215;28;20087;-48
2021/04/19 05:41:12;;;;;;;30.63;20.33;;;;;;;4.59;74.21;95904.81;4994643;28;20381;-49
2021/04/19 05:43:43;;;;;;;30.08;20.35;;;;;;;4.78;73.35;95900.19;4984837;28;20057;-45
2021/04/19 05:46:14;;;;;;;30.25;19.85;;;;;;;4.75;73.12;95905.34;4994856;28;20054;-49
2021/04/19 05:48:42;;;;;;;28.25;19.17;;;;;;;4.85;72.71;95914.00;4994940;28;20058;-48
2021/04/19 05:51:34;;;;;;;32.60;20.42;;;;;;;4.84;72.71;95900.88;4994515;28;20105;-47
2021/04/19 05:54:01;;;;;;;30.20;20.35;;;;;;;4.93;72.30;95907.94;4994482;28;20061;-48
2021/04/19 05:56:42;;;;;;;33.17;20.38;;;;;;;4.92;72.29;95902.88;4976961;28;20161;-47
2021/04/19 05:59:11;;;;;;;28.10;19.05;;;;;;;4.91;72.65;95910.13;4993115;28;20109;-48
2021/04/19 06:01:41;;;;;;;26.65;19.73;;;;;;;5.00;72.04;95906.75;4994134;28;20050;-48
2021/04/19 06:04:36;;;;;;;29.20;19.65;;;;;;;5.09;72.23;95910.34;4994243;28;20097;-48
2021/04/19 06:07:29;;;;;;;32.63;20.77;;;;;;;5.20;72.18;95903.69;5007058;28;20050;-48
2021/04/19 06:10:31;;;;;;;29.08;19.70;;;;;;;5.47;71.13;95910.13;4990118;28;20050;-45
2021/04/19 06:13:09;;;;;;;29.60;19.52;;;;;;;5.54;70.58;95905.94;4996936;28;20058;-49
2021/04/19 06:15:37;;;;;;;28.80;18.25;;;;;;;5.45;70.29;95907.75;5013193;28;20479;-50
2021/04/19 06:18:04;;;;;;;26.88;19.40;;;;;;;5.56;70.22;95906.44;5012349;28;20503;-48
2021/04/19 06:20:31;;;;;;;27.73;19.55;;;;;;;5.60;70.23;95903.97;5012058;28;20111;-49
2021/04/19 06:23:00;;;;;;;27.63;19.10;;;;;;;5.47;71.14;95912.81;4996672;28;20053;-50
2021/04/19 06:25:27;;;;;;;33.60;20.23;;;;;;;5.52;70.55;95908.13;5008739;28;20123;-46
2021/04/19 06:28:03;;;;;;;28.40;19.05;;;;;;;5.51;70.46;95905.75;5011194;28;20419;-49
2021/04/19 06:30:32;;;;;;;28.50;19.65;;;;;;;5.66;70.38;95904.66;5012315;28;20084;-50
2021/04/19 06:33:01;;;;;;;28.88;20.35;;;;;;;5.84;70.16;95903.69;5010011;28;20531;-47
2021/04/19 06:35:28;;;;;;;26.77;19.30;;;;;;;5.79;70.82;95911.88;5012719;28;20057;-48
2021/04/19 06:37:56;;;;;;;29.75;19.85;;;;;;;5.71;70.31;95901.84;5012340;28;20054;-52
2021/04/19 06:40:24;;;;;;;28.27;18.92;;;;;;;5.89;69.76;95900.91;5008340;28;20111;-48
2021/04/19 06:42:53;;;;;;;28.77;19.98;;;;;;;5.71;70.02;95902.63;5009047;28;20062;-47
2021/04/19 06:45:20;;;;;;;26.38;18.27;;;;;;;5.89;70.06;95908.19;5005274;28;20406;-47
2021/04/19 06:47:48;;;;;;;29.70;19.15;;;;;;;6.09;69.81;95913.91;5012224;28;20046;-47
2021/04/19 06:50:15;;;;;;;30.95;18.67;;;;;;;5.69;71.32;95909.41;5007375;28;20057;-46
2021/04/19 06:52:51;;;;;;;31.02;18.75;;;;;;;5.77;71.20;95914.84;5010490;28;20054;-49
2021/04/19 06:55:21;;;;;;;29.08;19.38;;;;;;;5.79;70.92;95903.84;5012292;28;20495;-45
2021/04/19 06:57:59;;;;;;;27.20;19.02;;;;;;;6.19;69.34;95907.50;5011371;28;20076;-44
2021/04/19 07:00:28;;;;;;;27.38;18.75;;;;;;;6.32;68.92;95911.25;5018915;28;20133;-45
2021/04/19 07:02:56;;;;;;;27.80;19.25;;;;;;;6.53;67.96;95915.03;5009151;28;20080;-48
2021/04/19 07:05:26;;;;;;;27.77;19.33;;;;;;;6.67;67.49;95911.47;5009191;28;20536;-50
2021/04/19 07:08:05;;;;;;;27.27;18.40;;;;;;;6.72;67.30;95909.44;5027309;28;20050;-47
2021/04/19 07:10:34;;;;;;;28.30;19.83;;;;;;;6.61;67.57;95910.81;5012430;28;20058;-46
2021/04/19 07:13:13;;;;;;;28.08;19.02;;;;;;;6.62;67.79;95907.00;5004840;28;20553;-48
2021/04/19 07:15:42;;;;;;;27.60;19.88;;;;;;;6.63;68.02;95910.47;5004489;28;20577;-49
2021/04/19 07:18:09;;;;;;;28.58;18.90;;;;;;;6.66;67.78;95902.63;5012666;28;20423;-49
2021/04/19 07:20:37;;;;;;;27.92;18.95;;;;;;;6.40;69.21;95910.53;5010514;28;20038;-47
2021/04/19 07:23:04;;;;;;;29.83;19.85;;;;;;;6.61;68.11;95905.44;4999049;28;20064;-53
2021/04/19 07:25:32;;;;;;;30.08;19.13;;;;;;;6.56;68.69;95905.53;5011566;28;20050;-47
2021/04/19 07:28:00;;;;;;;26.27;18.63;;;;;;;6.72;67.90;95908.66;5012700;28;20066;-47
2021/04/19 07:30:27;;;;;;;27.08;18.83;;;;;;;6.88;67.28;95911.75;4999437;28;20047;-49
2021/04/19 07:32:53;;;;;;;40.38;20.77;;;;;;;6.63;68.71;95899.72;5011927;28;20558;-48
2021/04/19 07:35:28;;;;;;;34.08;18.58;;;;;;;7.09;67.08;95898.56;5009928;28;20595;-46
2021/04/19 07:37:57;;;;;;;28.90;18.80;;;;;;;6.97;67.42;95901.81;5008712;28;20415;-45
2021/04/19 07:40:48;;;;;;;25.90;19.25;;;;;;;6.65;67.83;95906.41;5011511;28;20108;-47
2021/04/19 07:43:18;;;;;;;30.88;20.05;;;;;;;6.36;69.99;95903.34;5006839;28;20504;-45
2021/04/19 07:46:13;;;;;;;30.75;19.60;;;;;;;6.31;69.73;95899.69;5010350;28;20163;-47
2021/04/19 07:48:48;;;;;;;29.27;19.75;;;;;;;6.27;70.25;95901.41;4999227;28;20262;-47
2021/04/19 07:51:39;;;;;;;25.85;18.33;;;;;;;6.70;68.68;95910.88;4999057;28;20100;-47
2021/04/19 07:54:24;;;;;;;28.70;19.63;;;;;;;7.09;67.20;95899.34;5007914;28;20515;-47
2021/04/19 07:56:54;;;;;;;25.98;18.58;;;;;;;7.23;67.12;95893.84;5009950;28;20049;-46
2021/04/19 07:59:25;;;;;;;30.10;19.33;;;;;;;7.42;65.74;95899.00;5010021;28;20099;-45
2021/04/19 08:02:00;;;;;;;24.45;18.45;;;;;;;7.48;65.80;95898.53;5011361;28;20058;-47
2021/04/19 08:04:28;;;;;;;25.85;18.73;;;;;;;7.59;65.34;95896.34;5011743;28;20045;-46
2021/04/19 08:06:56;;;;;;;27.90;19.35;;;;;;;7.69;65.21;95896.03;5011251;28;20502;-47
2021/04/19 08:09:29;;;;;;;28.90;18.83;;;;;;;7.77;65.00;95891.78;5009138;28;20046;-47
2021/04/19 08:12:06;;;;;;;25.20;17.85;;;;;;;7.79;64.51;95886.84;5009948;28;20104;-48
2021/04/19 08:14:33;;;;;;;24.52;17.77;;;;;;;7.91;64.31;95886.25;4995808;28;20050;-48
2021/04/19 08:17:10;;;;;;;27.75;18.33;;;;;;;7.90;64.73;95890.06;5010389;28;20124;-43
2021/04/19 08:19:39;;;;;;;22.10;16.40;;;;;;;7.45;65.27;95892.97;5005591;28;20137;-44
2021/04/19 08:22:17;;;;;;;24.75;16.30;;;;;;;7.90;65.03;95895.44;5004955;28;20062;-47
2021/04/19 08:24:45;;;;;;;24.20;17.70;;;;;;;8.04;64.44;95893.38;5003377;28;20423;-45
2021/04/19 08:27:23;;;;;;;27.35;19.02;;;;;;;8.04;64.74;95895.28;5009266;28;20189;-46
2021/04/19 08:29:50;;;;;;;25.85;17.73;;;;;;;8.06;64.21;95891.19;5009402;28;20459;-44
2021/04/19 08:32:23;;;;;;;25.73;17.73;;;;;;;7.77;64.93;95890.97;5010697;28;20084;-45
2021/04/19 08:34:50;;;;;;;27.17;17.15;;;;;;;7.29;66.27;95894.53;5004790;28;20145;-43
2021/04/19 08:37:20;;;;;;;22.20;16.65;;;;;;;7.82;64.98;95896.22;5010672;28;20050;-44
2021/04/19 08:39:47;;;;;;;25.63;18.08;;;;;;;8.20;63.93;95899.88;5010163;28;20503;-47
2021/04/19 08:42:21;;;;;;;25.50;18.20;;;;;;;8.28;63.71;95890.19;5009547;28;20050;-44
2021/04/19 08:44:59;;;;;;;24.40;17.08;;;;;;;8.33;62.25;95900.06;4991617;28;20076;-45
2021/04/19 08:47:29;;;;;;;25.52;17.63;;;;;;;8.73;61.23;95895.25;4991810;28;20042;-45
2021/04/19 08:50:01;;;;;;;25.83;16.75;;;;;;;8.20;62.92;95901.78;5002130;28;20097;-46
2021/04/19 08:52:28;;;;;;;27.50;17.42;;;;;;;8.24;63.75;95891.97;5003760;28;20050;-44
2021/04/19 08:54:56;;;;;;;24.58;17.30;;;;;;;8.19;62.84;95892.91;4991412;28;20482;-48
2021/04/19 08:57:22;;;;;;;26.30;18.10;;;;;;;8.62;61.56;95889.41;4991303;28;20124;-45
2021/04/19 08:59:52;;;;;;;24.55;17.05;;;;;;;8.88;60.99;95897.44;5005860;28;20094;-47
2021/04/19 09:02:19;;;;;;;25.92;16.67;;;;;;;8.72;60.25;95901.75;4991216;28;20055;-44
2021/04/19 09:05:08;;;;;;;22.23;15.23;;;;;;;9.02;60.00;95905.34;4991469;28;20094;-44
2021/04/19 09:07:38;;;;;;;22.02;16.17;;;;;;;8.77;60.60;95900.78;5006744;28;20042;-44
2021/04/19 09:10:07;;;;;;;22.85;15.95;;;;;;;8.30;61.62;95898.78;5006136;28;20054;-46
2021/04/19 09:12:34;;;;;;;23.50;16.70;;;;;;;8.78;60.25;95895.09;4995067;28;20480;-47
2021/04/19 09:15:11;;;;;;;21.30;14.63;;;;;;;8.43;60.59;95899.75;4994976;28;20449;-44
2021/04/19 09:17:39;;;;;;;22.50;15.05;;;;;;;8.62;59.52;95907.50;4993637;28;20133;-47
2021/04/19 09:20:13;;;;;;;20.40;15.13;;;;;;;9.22;58.38;95900.34;5011284;28;20052;-44
2021/04/19 09:22:40;;;;;;;21.75;14.80;;;;;;;9.13;58.12;95890.38;5010997;28;20065;-46
2021/04/19 09:25:13;;;;;;;21.35;15.05;;;;;;;9.71;56.99;95898.03;5013744;28;20514;-45
2021/04/19 09:27:47;;;;;;;23.20;14.88;;;;;;;9.58;57.65;95889.03;5014215;28;20046;-45
2021/04/19 09:30:23;;;;;;;22.05;15.52;;;;;;;9.02;59.56;95888.34;5014614;28;20058;-46
2021/04/19 09:33:02;;;;;;;20.67;14.57;;;;;;;9.17;58.40;95885.13;5000727;28;20069;-46
2021/04/19 09:38:15;;;;;;;20.13;14.45;;;;;;;9.62;56.22;95889.19;5005488;28;20053;-45
2021/04/19 09:40:56;;;;;;;22.27;15.18;;;;;;;9.39;57.56;95888.66;5009262;28;20046;-44
2021/04/19 09:43:37;;;;;;;19.52;14.57;;;;;;;9.58;56.56;95880.94;4994551;28;20137;-46
2021/04/19 09:46:29;;;;;;;25.07;14.50;;;;;;;9.37;57.92;95875.50;5013326;28;20141;-46
2021/04/19 09:49:04;;;;;;;18.40;13.55;;;;;;;8.94;57.83;95872.97;5013070;28;20056;-45
2021/04/19 09:51:43;;;;;;;20.58;14.02;;;;;;;8.74;58.81;95871.75;5008432;28;20051;-45
2021/04/19 09:54:09;;;;;;;21.05;14.88;;;;;;;8.77;59.57;95868.41;5013845;28;20061;-45
2021/04/19 09:56:44;;;;;;;20.45;15.15;;;;;;;9.18;59.24;95872.41;5012909;28;20123;-45
2021/04/19 09:59:27;;;;;;;21.17;14.05;;;;;;;9.09;59.94;95867.84;4993165;28;20058;-50
2021/04/19 10:01:55;;;;;;;22.83;14.10;;;;;;;9.52;57.57;95868.72;4994190;28;20145;-46
2021/04/19 10:04:22;;;;;;;18.50;13.63;;;;;;;9.09;57.40;95870.53;5004122;28;20060;-47
2021/04/19 10:06:53;;;;;;;16.90;12.30;;;;;;;9.01;58.32;95862.50;5001645;28;20469;-45
2021/04/19 10:09:25;;;;;;;18.27;12.80;;;;;;;9.16;56.99;95866.53;4993911;28;20054;-44
2021/04/19 10:11:55;;;;;;;19.27;12.85;;;;;;;9.70;54.74;95864.03;4993826;28;20068;-43
2021/04/19 10:14:22;;;;;;;20.17;14.70;;;;;;;8.92;58.61;95857.13;4999279;28;20058;-50
2021/04/19 10:16:50;;;;;;;21.33;15.23;;;;;;;9.40;58.09;95861.34;5009343;28;20393;-49
2021/04/19 10:19:28;;;;;;;20.25;15.60;;;;;;;9.46;58.28;95859.25;4996000;28;20133;-46
2021/04/19 10:21:59;;;;;;;21.02;14.40;;;;;;;8.83;59.20;95848.25;5001037;28;20057;-46
2021/04/19 10:24:25;;;;;;;20.58;14.88;;;;;;;8.88;59.13;95856.19;5013012;28;20049;-44
2021/04/19 10:26:52;;;;;;;21.85;14.70;;;;;;;9.11;58.79;95852.13;5013190;28;20057;-46
2021/04/19 10:29:20;;;;;;;20.65;15.82;;;;;;;9.70;57.79;95859.41;5013342;28;20064;-49
2021/04/19 10:31:56;;;;;;;21.05;14.90;;;;;;;9.04;57.71;95854.53;5009071;28;20058;-44
2021/04/19 10:34:26;;;;;;;18.65;14.07;;;;;;;9.38;58.02;95850.06;5011611;28;20129;-46
2021/04/19 10:36:57;;;;;;;19.30;13.88;;;;;;;9.34;56.63;95843.75;5012194;28;20058;-46
2021/04/19 10:39:27;;;;;;;17.75;12.77;;;;;;;9.70;56.59;95837.03;5008277;28;20046;-46
2021/04/19 10:41:58;;;;;;;18.15;13.18;;;;;;;9.94;55.65;95839.84;4993002;28;20050;-47
2021/04/19 10:44:36;;;;;;;18.23;12.05;;;;;;;9.96;53.25;95837.63;5002536;28;20061;-47
2021/04/19 10:47:05;;;;;;;17.13;11.40;;;;;;;10.11;51.97;95827.31;5011735;28;20057;-45
2021/04/19 10:49:33;;;;;;;17.55;12.15;;;;;;;10.88;52.75;95833.09;5010935;28;20060;-45
2021/04/19 10:52:01;;;;;;;18.02;11.82;;;;;;;11.00;51.05;95825.78;5005818;28;20042;-48
2021/04/19 10:54:37;;;;;;;14.50;10.57;;;;;;;10.43;51.20;95821.19;5005053;28;20057;-48
2021/04/19 10:57:06;;;;;;;15.48;10.98;;;;;;;10.99;51.28;95818.78;5011526;28;20391;-49
2021/04/19 10:59:33;;;;;;;15.82;11.18;;;;;;;11.67;48.80;95815.50;5011877;28;20046;-49
2021/04/19 11:02:07;;;;;;;15.40;11.57;;;;;;;11.64;48.70;95812.69;5007249;28;20050;-44
2021/04/19 11:04:36;;;;;;;18.30;11.13;;;;;;;11.92;48.01;95816.22;5011611;28;20050;-45
2021/04/19 11:07:26;;;;;;;15.00;9.15;;;;;;;11.16;47.64;95806.94;5011832;28;20057;-44
2021/04/19 11:10:10;;;;;;;14.07;10.02;;;;;;;10.84;49.16;95808.63;5002990;28;20416;-47
2021/04/19 11:12:38;;;;;;;14.57;9.90;;;;;;;10.98;48.56;95803.69;4992787;28;20077;-49
2021/04/19 11:15:12;;;;;;;14.20;8.95;;;;;;;9.63;50.49;95812.44;5009827;28;20522;-46
2021/04/19 11:17:40;;;;;;;12.07;8.98;;;;;;;10.44;49.59;95814.63;5011681;28;20107;-46
2021/04/19 11:20:28;;;;;;;12.75;9.73;;;;;;;11.41;48.78;95796.91;5011097;28;20050;-49
2021/04/19 11:22:55;;;;;;;15.90;11.32;;;;;;;11.00;49.65;95801.41;5011397;28;20057;-48
2021/04/19 11:25:23;;;;;;;18.42;11.55;;;;;;;10.71;50.86;95807.81;5009835;28;20062;-47
2021/04/19 11:28:13;;;;;;;16.27;10.65;;;;;;;11.41;48.95;95802.31;5012387;28;20076;-49
2021/04/19 11:30:40;;;;;;;17.10;11.40;;;;;;;11.89;48.04;95792.53;5005161;28;20058;-46
2021/04/19 11:33:09;;;;;;;20.95;11.50;;;;;;;12.77;48.48;95794.47;5010481;28;20073;-46
2021/04/19 11:35:42;;;;;;;13.93;10.25;;;;;;;12.03;46.62;95785.94;5001999;28;20078;-47
2021/04/19 11:38:13;;;;;;;13.88;10.00;;;;;;;12.13;46.29;95797.06;4998838;28;20061;-46
2021/04/19 11:40:41;;;;;;;14.10;10.63;;;;;;;12.52;45.51;95791.13;5009759;28;20111;-44
2021/04/19 11:43:27;;;;;;;15.50;11.00;;;;;;;12.16;45.08;95782.03;5003839;28;20404;-47
2021/04/19 11:46:06;;;;;;;17.13;10.00;;;;;;;11.36;46.25;95783.56;5004200;28;20125;-50
2021/04/19 11:48:36;;;;;;;12.93;9.30;;;;;;;11.04;47.86;95785.28;5010799;28;20112;-46
2021/04/19 11:51:07;;;;;;;14.30;9.20;;;;;;;10.91;47.36;95781.78;5011199;28;20064;-44